createdAt,value
2019-02-17T00:00:19.448Z,24.03
2019-02-17T00:01:03.807Z,22.77
2019-02-17T00:01:44.066Z,22.77
2019-02-17T00:02:19.591Z,22.70
2019-02-17T00:02:55.197Z,21.23
2019-02-17T00:03:30.807Z,19.43
2019-02-17T00:04:06.334Z,18.73
2019-02-17T00:04:42.237Z,19.83
2019-02-17T00:05:18.148Z,20.63
2019-02-17T00:05:53.740Z,20.53
2019-02-17T00:06:29.588Z,20.67
2019-02-17T00:07:05.419Z,20.33
2019-02-17T00:07:41.016Z,20.13
2019-02-17T00:08:17.964Z,19.60
2019-02-17T00:08:53.561Z,20.37
2019-02-17T00:09:29.078Z,20.70
2019-02-17T00:10:05.161Z,19.77
2019-02-17T00:10:40.690Z,18.57
2019-02-17T00:11:16.220Z,19.57
2019-02-17T00:11:51.760Z,20.27
2019-02-17T00:12:28.252Z,20.37
2019-02-17T00:13:04.670Z,19.03
2019-02-17T00:13:40.548Z,18.97
2019-02-17T00:14:16.200Z,18.07
2019-02-17T00:14:51.707Z,19.00
2019-02-17T00:15:27.322Z,18.33
2019-02-17T00:16:02.991Z,19.00
2019-02-17T00:16:38.643Z,19.40
2019-02-17T00:17:14.208Z,18.47
2019-02-17T00:17:49.804Z,17.17
2019-02-17T00:18:25.331Z,18.00
2019-02-17T00:19:01.179Z,18.73
2019-02-17T00:19:36.746Z,19.33
2019-02-17T00:20:12.408Z,18.60
2019-02-17T00:20:47.985Z,17.60
2019-02-17T00:21:23.482Z,17.97
2019-02-17T00:21:59.062Z,18.40
2019-02-17T00:22:34.682Z,19.03
2019-02-17T00:23:10.268Z,18.80
2019-02-17T00:23:45.805Z,19.73
2019-02-17T00:24:21.334Z,21.73
2019-02-17T00:24:56.953Z,22.53
2019-02-17T00:25:32.564Z,25.07
2019-02-17T00:26:08.143Z,29.40
2019-02-17T00:26:43.676Z,28.53
2019-02-17T00:27:19.183Z,26.63
2019-02-17T00:27:54.852Z,27.93
2019-02-17T00:28:30.437Z,28.77
2019-02-17T00:29:05.939Z,28.40
2019-02-17T00:29:41.754Z,25.60
2019-02-17T00:30:17.585Z,28.43
2019-02-17T00:30:53.237Z,25.67
2019-02-17T00:31:28.796Z,26.40
2019-02-17T00:32:04.297Z,23.33
2019-02-17T00:32:39.820Z,28.33
2019-02-17T00:33:15.416Z,21.90
2019-02-17T00:33:51.036Z,24.00
2019-02-17T00:34:26.608Z,22.10
2019-02-17T00:35:03.573Z,25.23
2019-02-17T00:35:39.135Z,24.40
2019-02-17T00:36:14.676Z,23.97
2019-02-17T00:36:50.177Z,20.83
2019-02-17T00:37:25.721Z,22.77
2019-02-17T00:38:01.285Z,19.97
2019-02-17T00:38:36.847Z,20.60
2019-02-17T00:39:12.373Z,19.33
2019-02-17T00:39:48.225Z,19.53
2019-02-17T00:40:23.831Z,18.97
2019-02-17T00:40:59.348Z,19.70
2019-02-17T00:41:34.891Z,18.70
2019-02-17T00:42:10.471Z,18.70
2019-02-17T00:42:46.061Z,18.63
2019-02-17T00:43:22.679Z,20.77
2019-02-17T00:43:58.552Z,18.40
2019-02-17T00:44:34.247Z,18.57
2019-02-17T00:45:10.612Z,27.37
2019-02-17T00:45:46.166Z,34.95
2019-02-17T00:46:21.684Z,39.20
2019-02-17T00:46:57.240Z,33.27
2019-02-17T00:47:35.428Z,41.50
2019-02-17T00:48:11.288Z,38.10
2019-02-17T00:48:46.790Z,42.10
2019-02-17T00:49:22.321Z,43.27
2019-02-17T00:49:57.962Z,39.70
2019-02-17T00:50:33.491Z,38.10
2019-02-17T00:51:09.381Z,37.30
2019-02-17T00:51:44.922Z,39.90
2019-02-17T00:52:20.418Z,36.93
2019-02-17T00:52:56.682Z,36.47
2019-02-17T00:53:32.315Z,34.83
2019-02-17T00:54:07.916Z,35.50
2019-02-17T00:54:43.455Z,35.70
2019-02-17T00:55:19.014Z,34.20
2019-02-17T00:55:54.604Z,34.60
2019-02-17T00:56:30.110Z,34.17
2019-02-17T00:57:05.895Z,34.40
2019-02-17T00:57:41.938Z,35.93
2019-02-17T00:58:18.507Z,32.90
2019-02-17T00:58:54.365Z,34.80
2019-02-17T00:59:29.875Z,36.23
2019-02-17T01:00:05.728Z,37.20
2019-02-17T01:00:42.956Z,36.37
2019-02-17T01:01:18.505Z,36.17
2019-02-17T01:01:54.091Z,35.93
2019-02-17T01:02:29.590Z,37.00
2019-02-17T01:03:05.497Z,37.03
2019-02-17T01:03:41.109Z,36.40
2019-02-17T01:04:16.724Z,35.47
2019-02-17T01:04:52.231Z,34.87
2019-02-17T01:05:27.827Z,33.27
2019-02-17T01:06:03.449Z,33.13
2019-02-17T01:06:38.988Z,34.03
2019-02-17T01:07:14.578Z,32.27
2019-02-17T01:07:50.164Z,31.70
2019-02-17T01:08:26.025Z,29.23
2019-02-17T01:09:01.587Z,27.70
2019-02-17T01:09:39.411Z,25.17
2019-02-17T01:10:15.220Z,25.60
2019-02-17T01:10:51.042Z,23.43
2019-02-17T01:11:26.592Z,24.93
2019-02-17T01:12:02.114Z,25.43
2019-02-17T01:12:37.642Z,25.23
2019-02-17T01:13:13.202Z,24.63
2019-02-17T01:13:48.754Z,24.03
2019-02-17T01:14:24.306Z,23.77
2019-02-17T01:14:59.883Z,23.53
2019-02-17T01:15:35.439Z,23.53
2019-02-17T01:16:10.942Z,24.77
2019-02-17T01:16:46.495Z,24.53
2019-02-17T01:17:22.029Z,22.40
2019-02-17T01:17:57.563Z,22.93
2019-02-17T01:18:33.385Z,20.90
2019-02-17T01:19:09.140Z,21.43
2019-02-17T01:19:44.656Z,21.83
2019-02-17T01:20:20.257Z,21.47
2019-02-17T01:20:55.811Z,20.40
2019-02-17T01:21:31.315Z,21.57
2019-02-17T01:22:06.907Z,20.57
2019-02-17T01:22:42.792Z,20.93
2019-02-17T01:23:18.359Z,21.90
2019-02-17T01:23:53.923Z,21.13
2019-02-17T01:24:29.447Z,21.47
2019-02-17T01:25:05.229Z,19.97
2019-02-17T01:25:40.865Z,20.67
2019-02-17T01:26:16.383Z,21.73
2019-02-17T01:26:51.922Z,20.07
2019-02-17T01:27:27.779Z,21.17
2019-02-17T01:28:03.316Z,22.17
2019-02-17T01:28:38.870Z,22.27
2019-02-17T01:29:20.356Z,20.90
2019-02-17T01:29:51.606Z,22.77
2019-02-17T01:30:27.130Z,21.23
2019-02-17T01:31:04.009Z,21.13
2019-02-17T01:31:39.526Z,21.97
2019-02-17T01:32:27.643Z,21.33
2019-02-17T01:33:03.228Z,21.07
2019-02-17T01:33:38.799Z,21.73
2019-02-17T01:34:14.424Z,20.53
2019-02-17T01:34:50.055Z,21.00
2019-02-17T01:35:25.578Z,20.27
2019-02-17T01:36:01.189Z,20.37
2019-02-17T01:36:37.069Z,20.73
2019-02-17T01:37:12.951Z,21.57
2019-02-17T01:37:48.495Z,20.40
2019-02-17T01:38:24.086Z,21.00
2019-02-17T01:38:59.615Z,22.43
2019-02-17T01:39:35.440Z,23.30
2019-02-17T01:40:10.966Z,21.57
2019-02-17T01:40:46.663Z,21.73
2019-02-17T01:41:22.463Z,21.90
2019-02-17T01:41:57.972Z,21.93
2019-02-17T01:42:33.822Z,22.97
2019-02-17T01:43:09.337Z,23.00
2019-02-17T01:43:44.905Z,22.23
2019-02-17T01:44:20.414Z,22.27
2019-02-17T01:44:56.278Z,23.40
2019-02-17T01:45:31.796Z,21.57
2019-02-17T01:46:07.366Z,20.80
2019-02-17T01:46:43.270Z,21.03
2019-02-17T01:47:18.777Z,20.50
2019-02-17T01:47:54.295Z,20.07
2019-02-17T01:48:29.872Z,20.43
2019-02-17T01:49:05.406Z,20.63
2019-02-17T01:49:41.038Z,19.17
2019-02-17T01:50:16.799Z,19.10
2019-02-17T01:50:52.342Z,18.37
2019-02-17T01:51:28.198Z,19.03
2019-02-17T01:52:04.093Z,18.20
2019-02-17T01:52:39.622Z,18.37
2019-02-17T01:53:15.130Z,18.47
2019-02-17T01:53:50.663Z,18.83
2019-02-17T01:54:26.229Z,17.17
2019-02-17T01:55:01.784Z,18.07
2019-02-17T01:55:37.370Z,18.03
2019-02-17T01:56:13.612Z,18.67
2019-02-17T01:56:49.146Z,17.43
2019-02-17T01:57:24.741Z,17.33
2019-02-17T01:58:00.281Z,18.90
2019-02-17T01:58:35.813Z,19.03
2019-02-17T01:59:11.379Z,17.47
2019-02-17T01:59:47.202Z,18.30
2019-02-17T02:00:22.714Z,17.87
2019-02-17T02:00:58.237Z,18.40
2019-02-17T02:01:34.306Z,17.50
2019-02-17T02:02:09.835Z,16.83
2019-02-17T02:02:45.374Z,18.87
2019-02-17T02:03:20.931Z,17.30
2019-02-17T02:03:56.547Z,18.43
2019-02-17T02:04:32.203Z,18.20
2019-02-17T02:05:08.118Z,18.87
2019-02-17T02:05:43.925Z,30.53
2019-02-17T02:06:19.446Z,32.83
2019-02-17T02:06:55.035Z,36.43
2019-02-17T02:07:30.555Z,41.97
2019-02-17T02:08:06.075Z,34.80
2019-02-17T02:08:41.970Z,27.87
2019-02-17T02:09:17.491Z,24.73
2019-02-17T02:09:53.048Z,29.40
2019-02-17T02:10:28.576Z,26.80
2019-02-17T02:11:04.179Z,23.03
2019-02-17T02:11:39.765Z,23.10
2019-02-17T02:12:15.369Z,22.37
2019-02-17T02:12:50.953Z,21.13
2019-02-17T02:13:26.486Z,23.50
2019-02-17T02:14:02.020Z,22.17
2019-02-17T02:14:37.579Z,19.83
2019-02-17T02:15:13.137Z,22.03
2019-02-17T02:15:48.924Z,20.23
2019-02-17T02:16:24.792Z,20.77
2019-02-17T02:17:00.313Z,20.00
2019-02-17T02:17:36.108Z,20.53
2019-02-17T02:18:11.614Z,18.80
2019-02-17T02:18:47.176Z,19.77
2019-02-17T02:19:22.685Z,18.70
2019-02-17T02:19:58.503Z,19.30
2019-02-17T02:20:34.150Z,19.03
2019-02-17T02:21:09.672Z,18.63
2019-02-17T02:21:45.237Z,18.50
2019-02-17T02:22:21.732Z,19.03
2019-02-17T02:22:57.293Z,18.00
2019-02-17T02:23:32.817Z,17.83
2019-02-17T02:24:08.372Z,17.97
2019-02-17T02:24:44.210Z,17.13
2019-02-17T02:25:19.990Z,17.93
2019-02-17T02:25:55.580Z,18.37
2019-02-17T02:26:32.174Z,18.20
2019-02-17T02:27:07.745Z,17.50
2019-02-17T02:27:43.489Z,18.17
2019-02-17T02:28:19.017Z,17.70
2019-02-17T02:28:54.880Z,16.73
2019-02-17T02:29:40.423Z,18.73
2019-02-17T02:30:10.028Z,18.80
2019-02-17T02:30:45.554Z,18.10
2019-02-17T02:31:22.040Z,17.37
2019-02-17T02:31:57.587Z,17.20
2019-02-17T02:32:34.764Z,19.83
2019-02-17T02:33:10.279Z,18.97
2019-02-17T02:33:45.821Z,18.40
2019-02-17T02:34:21.612Z,19.43
2019-02-17T02:34:57.131Z,19.80
2019-02-17T02:35:32.646Z,19.60
2019-02-17T02:36:08.170Z,19.43
2019-02-17T02:36:43.693Z,18.60
2019-02-17T02:37:19.262Z,20.17
2019-02-17T02:37:54.784Z,19.83
2019-02-17T02:38:30.662Z,18.23
2019-02-17T02:39:06.802Z,18.67
2019-02-17T02:39:42.705Z,19.03
2019-02-17T02:40:18.202Z,18.07
2019-02-17T02:40:53.773Z,18.37
2019-02-17T02:41:34.642Z,18.13
2019-02-17T02:42:07.242Z,18.20
2019-02-17T02:42:42.936Z,17.73
2019-02-17T02:43:18.707Z,18.20
2019-02-17T02:43:54.222Z,17.70
2019-02-17T02:44:30.028Z,18.17
2019-02-17T02:45:06.186Z,17.83
2019-02-17T02:45:41.754Z,17.50
2019-02-17T02:46:17.273Z,18.00
2019-02-17T02:46:52.878Z,18.03
2019-02-17T02:47:28.698Z,17.37
2019-02-17T02:48:04.665Z,18.03
2019-02-17T02:48:40.300Z,17.53
2019-02-17T02:49:15.814Z,18.20
2019-02-17T02:49:51.361Z,17.67
2019-02-17T02:50:28.066Z,17.60
2019-02-17T02:51:03.617Z,18.80
2019-02-17T02:51:39.330Z,18.63
2019-02-17T02:52:15.151Z,18.03
2019-02-17T02:52:50.765Z,17.50
2019-02-17T02:53:26.317Z,17.77
2019-02-17T02:54:02.825Z,18.00
2019-02-17T02:54:38.839Z,18.70
2019-02-17T02:55:14.382Z,17.83
2019-02-17T02:55:49.905Z,17.57
2019-02-17T02:56:25.426Z,17.63
2019-02-17T02:57:01.289Z,18.17
2019-02-17T02:57:36.807Z,17.00
2019-02-17T02:58:12.331Z,16.50
2019-02-17T02:58:47.952Z,17.43
2019-02-17T02:59:23.461Z,16.10
2019-02-17T02:59:59.153Z,16.37
2019-02-17T03:00:35.016Z,17.57
2019-02-17T03:01:11.207Z,16.70
2019-02-17T03:01:46.746Z,15.77
2019-02-17T03:02:22.382Z,16.60
2019-02-17T03:02:57.941Z,16.00
2019-02-17T03:03:33.529Z,15.73
2019-02-17T03:04:09.056Z,17.43
2019-02-17T03:04:44.580Z,15.47
2019-02-17T03:05:20.144Z,17.27
2019-02-17T03:06:05.275Z,16.43
2019-02-17T03:06:47.347Z,16.47
2019-02-17T03:07:23.578Z,15.67
2019-02-17T03:07:59.132Z,15.63
2019-02-17T03:08:34.674Z,16.23
2019-02-17T03:09:10.241Z,16.53
2019-02-17T03:09:45.762Z,16.47
2019-02-17T03:10:21.284Z,16.13
2019-02-17T03:10:56.836Z,15.80
2019-02-17T03:11:33.329Z,16.70
2019-02-17T03:12:08.896Z,16.20
2019-02-17T03:12:44.411Z,16.17
2019-02-17T03:13:19.948Z,17.17
2019-02-17T03:13:55.526Z,17.07
2019-02-17T03:14:31.043Z,16.67
2019-02-17T03:15:06.884Z,16.20
2019-02-17T03:15:42.743Z,16.83
2019-02-17T03:16:18.282Z,16.77
2019-02-17T03:16:53.806Z,16.43
2019-02-17T03:17:29.459Z,16.60
2019-02-17T03:18:04.971Z,16.83
2019-02-17T03:18:40.533Z,17.27
2019-02-17T03:19:16.059Z,16.97
2019-02-17T03:19:51.609Z,15.53
2019-02-17T03:20:27.429Z,16.73
2019-02-17T03:21:02.986Z,17.40
2019-02-17T03:21:38.503Z,16.47
2019-02-17T03:22:14.441Z,17.60
2019-02-17T03:22:50.943Z,17.03
2019-02-17T03:23:26.477Z,16.57
2019-02-17T03:24:02.003Z,17.50
2019-02-17T03:24:38.613Z,17.13
2019-02-17T03:25:14.147Z,16.07
2019-02-17T03:25:49.677Z,16.67
2019-02-17T03:26:25.193Z,15.57
2019-02-17T03:27:01.019Z,15.70
2019-02-17T03:27:36.634Z,16.30
2019-02-17T03:28:12.172Z,16.27
2019-02-17T03:28:47.689Z,16.37
2019-02-17T03:29:23.216Z,15.37
2019-02-17T03:30:04.913Z,15.07
2019-02-17T03:30:36.236Z,15.40
2019-02-17T03:31:11.767Z,16.10
2019-02-17T03:31:47.303Z,16.23
2019-02-17T03:32:22.808Z,16.43
2019-02-17T03:32:58.370Z,15.93
2019-02-17T03:33:34.491Z,15.07
2019-02-17T03:34:10.061Z,14.67
2019-02-17T03:34:46.255Z,16.37
2019-02-17T03:35:21.766Z,16.17
2019-02-17T03:35:57.285Z,17.33
2019-02-17T03:36:32.846Z,15.90
2019-02-17T03:37:08.368Z,16.80
2019-02-17T03:37:43.935Z,16.13
2019-02-17T03:38:19.435Z,16.50
2019-02-17T03:38:54.967Z,15.20
2019-02-17T03:39:30.532Z,15.87
2019-02-17T03:40:06.790Z,16.23
2019-02-17T03:40:42.404Z,15.97
2019-02-17T03:41:17.939Z,15.73
2019-02-17T03:41:53.460Z,15.40
2019-02-17T03:42:28.988Z,15.63
2019-02-17T03:43:04.503Z,15.57
2019-02-17T03:43:40.075Z,15.57
2019-02-17T03:44:15.588Z,15.33
2019-02-17T03:44:51.257Z,15.57
2019-02-17T03:45:26.813Z,15.80
2019-02-17T03:46:02.400Z,15.93
2019-02-17T03:46:38.326Z,15.67
2019-02-17T03:47:13.894Z,15.93
2019-02-17T03:47:49.768Z,15.63
2019-02-17T03:48:25.274Z,14.80
2019-02-17T03:49:00.790Z,15.67
2019-02-17T03:49:36.430Z,15.17
2019-02-17T03:50:11.959Z,15.67
2019-02-17T03:50:47.525Z,15.47
2019-02-17T03:51:23.049Z,15.37
2019-02-17T03:51:58.558Z,14.73
2019-02-17T03:52:34.149Z,14.70
2019-02-17T03:53:09.658Z,16.67
2019-02-17T03:53:45.330Z,14.80
2019-02-17T03:54:20.841Z,15.10
2019-02-17T03:54:56.752Z,15.57
2019-02-17T03:55:32.396Z,15.43
2019-02-17T03:56:07.984Z,16.10
2019-02-17T03:56:44.139Z,14.60
2019-02-17T03:57:19.732Z,15.57
2019-02-17T03:57:55.281Z,15.07
2019-02-17T03:58:30.793Z,15.47
2019-02-17T03:59:06.391Z,16.60
2019-02-17T03:59:42.256Z,15.40
2019-02-17T04:00:17.795Z,14.80
2019-02-17T04:00:53.366Z,15.47
2019-02-17T04:01:28.919Z,15.30
2019-02-17T04:02:04.423Z,14.77
2019-02-17T04:02:39.996Z,14.63
2019-02-17T04:03:15.613Z,15.33
2019-02-17T04:03:51.158Z,14.20
2019-02-17T04:04:26.772Z,15.23
2019-02-17T04:05:02.306Z,15.17
2019-02-17T04:05:38.176Z,15.47
2019-02-17T04:06:13.984Z,15.10
2019-02-17T04:06:49.518Z,14.73
2019-02-17T04:07:25.026Z,17.00
2019-02-17T04:08:00.550Z,16.23
2019-02-17T04:08:36.182Z,16.00
2019-02-17T04:09:11.690Z,16.43
2019-02-17T04:09:47.223Z,15.47
2019-02-17T04:10:22.818Z,16.33
2019-02-17T04:10:58.422Z,15.80
2019-02-17T04:11:33.939Z,15.70
2019-02-17T04:12:09.490Z,16.30
2019-02-17T04:12:45.010Z,15.47
2019-02-17T04:13:20.576Z,15.83
2019-02-17T04:13:56.156Z,16.87
2019-02-17T04:14:31.730Z,15.40
2019-02-17T04:15:07.395Z,14.70
2019-02-17T04:15:44.177Z,14.67
2019-02-17T04:16:19.697Z,16.60
2019-02-17T04:16:55.561Z,14.87
2019-02-17T04:17:31.133Z,15.67
2019-02-17T04:18:06.651Z,15.73
2019-02-17T04:18:42.353Z,14.87
2019-02-17T04:19:17.905Z,14.30
2019-02-17T04:19:53.731Z,15.67
2019-02-17T04:20:29.257Z,14.90
2019-02-17T04:21:04.839Z,14.87
2019-02-17T04:21:40.356Z,15.43
2019-02-17T04:22:16.171Z,14.40
2019-02-17T04:22:51.957Z,16.00
2019-02-17T04:23:31.421Z,14.77
2019-02-17T04:24:05.035Z,15.80
2019-02-17T04:24:40.899Z,15.03
2019-02-17T04:25:16.419Z,15.63
2019-02-17T04:25:55.462Z,13.83
2019-02-17T04:26:31.003Z,16.03
2019-02-17T04:27:06.593Z,14.90
2019-02-17T04:27:42.210Z,14.90
2019-02-17T04:28:18.038Z,15.07
2019-02-17T04:28:53.556Z,15.97
2019-02-17T04:29:30.439Z,14.90
2019-02-17T04:30:06.006Z,15.20
2019-02-17T04:30:41.926Z,13.53
2019-02-17T04:31:17.449Z,14.47
2019-02-17T04:31:53.278Z,15.27
2019-02-17T04:32:28.787Z,15.37
2019-02-17T04:33:04.608Z,15.47
2019-02-17T04:33:40.119Z,14.20
2019-02-17T04:34:15.950Z,15.47
2019-02-17T04:34:51.723Z,15.13
2019-02-17T04:35:27.327Z,15.13
2019-02-17T04:36:02.909Z,15.23
2019-02-17T04:36:38.492Z,14.67
2019-02-17T04:37:14.036Z,15.23
2019-02-17T04:37:49.614Z,15.70
2019-02-17T04:38:25.491Z,15.03
2019-02-17T04:39:01.014Z,15.40
2019-02-17T04:39:37.965Z,15.73
2019-02-17T04:40:13.511Z,14.63
2019-02-17T04:40:49.039Z,15.17
2019-02-17T04:41:24.879Z,15.90
2019-02-17T04:42:00.508Z,15.17
2019-02-17T04:42:36.125Z,15.43
2019-02-17T04:43:11.818Z,15.47
2019-02-17T04:43:47.351Z,14.50
2019-02-17T04:44:22.934Z,15.43
2019-02-17T04:44:58.466Z,15.27
2019-02-17T04:45:34.019Z,14.63
2019-02-17T04:46:09.566Z,16.10
2019-02-17T04:46:45.120Z,15.27
2019-02-17T04:47:20.786Z,15.27
2019-02-17T04:47:56.300Z,15.40
2019-02-17T04:48:31.856Z,15.23
2019-02-17T04:49:07.638Z,14.60
2019-02-17T04:49:43.283Z,15.20
2019-02-17T04:50:18.931Z,15.20
2019-02-17T04:50:54.412Z,15.17
2019-02-17T04:51:29.909Z,14.63
2019-02-17T04:52:05.824Z,14.80
2019-02-17T04:52:41.721Z,15.77
2019-02-17T04:53:17.239Z,15.10
2019-02-17T04:53:52.763Z,15.47
2019-02-17T04:54:28.657Z,14.60
2019-02-17T04:55:04.206Z,14.93
2019-02-17T04:55:39.701Z,15.27
2019-02-17T04:56:15.266Z,16.07
2019-02-17T04:56:50.770Z,14.17
2019-02-17T04:57:26.635Z,15.47
2019-02-17T04:58:02.148Z,15.30
2019-02-17T04:58:37.662Z,14.47
2019-02-17T04:59:13.166Z,14.73
2019-02-17T04:59:48.700Z,15.53
2019-02-17T05:00:24.219Z,15.50
2019-02-17T05:00:59.747Z,15.37
2019-02-17T05:01:35.351Z,15.27
2019-02-17T05:02:10.863Z,14.23
2019-02-17T05:02:46.391Z,15.23
2019-02-17T05:03:22.612Z,14.97
2019-02-17T05:03:58.143Z,14.43
2019-02-17T05:04:33.691Z,14.00
2019-02-17T05:05:09.222Z,15.00
2019-02-17T05:05:45.365Z,14.43
2019-02-17T05:06:20.896Z,15.37
2019-02-17T05:06:56.455Z,14.17
2019-02-17T05:07:31.994Z,15.77
2019-02-17T05:08:07.544Z,14.63
2019-02-17T05:08:43.653Z,14.77
2019-02-17T05:09:19.175Z,14.40
2019-02-17T05:09:54.706Z,14.93
2019-02-17T05:10:30.563Z,14.47
2019-02-17T05:11:06.083Z,14.47
2019-02-17T05:11:41.660Z,14.10
2019-02-17T05:12:17.242Z,14.80
2019-02-17T05:12:52.849Z,15.23
2019-02-17T05:13:28.445Z,15.10
2019-02-17T05:14:04.002Z,15.57
2019-02-17T05:14:39.587Z,15.53
2019-02-17T05:15:15.115Z,14.57
2019-02-17T05:15:50.643Z,14.20
2019-02-17T05:16:26.170Z,15.53
2019-02-17T05:17:01.671Z,15.40
2019-02-17T05:17:39.385Z,15.33
2019-02-17T05:18:14.933Z,14.93
2019-02-17T05:18:50.451Z,15.70
2019-02-17T05:19:25.962Z,14.83
2019-02-17T05:20:01.476Z,15.47
2019-02-17T05:20:36.999Z,14.57
2019-02-17T05:21:12.639Z,15.80
2019-02-17T05:21:48.174Z,16.30
2019-02-17T05:22:24.063Z,16.00
2019-02-17T05:22:59.634Z,16.30
2019-02-17T05:23:35.232Z,15.73
2019-02-17T05:24:10.758Z,16.83
2019-02-17T05:24:46.265Z,15.57
2019-02-17T05:25:22.074Z,16.50
2019-02-17T05:25:57.589Z,15.93
2019-02-17T05:26:33.111Z,16.13
2019-02-17T05:27:08.923Z,16.83
2019-02-17T05:27:44.443Z,15.80
2019-02-17T05:28:19.981Z,15.57
2019-02-17T05:28:56.639Z,15.33
2019-02-17T05:29:33.334Z,16.77
2019-02-17T05:30:09.111Z,16.63
2019-02-17T05:30:52.732Z,15.40
2019-02-17T05:31:22.217Z,15.13
2019-02-17T05:31:58.003Z,14.80
2019-02-17T05:32:33.511Z,16.23
2019-02-17T05:33:09.092Z,16.30
2019-02-17T05:33:44.855Z,14.90
2019-02-17T05:34:20.431Z,15.33
2019-02-17T05:34:56.007Z,15.57
2019-02-17T05:35:31.776Z,14.90
2019-02-17T05:36:07.577Z,15.40
2019-02-17T05:36:43.493Z,14.57
2019-02-17T05:37:20.082Z,14.97
2019-02-17T05:37:55.605Z,15.07
2019-02-17T05:38:31.469Z,14.57
2019-02-17T05:39:06.998Z,15.37
2019-02-17T05:39:42.551Z,15.27
2019-02-17T05:40:18.073Z,14.30
2019-02-17T05:40:53.596Z,15.63
2019-02-17T05:41:29.123Z,14.30
2019-02-17T05:42:04.955Z,15.33
2019-02-17T05:42:40.506Z,15.70
2019-02-17T05:43:16.040Z,14.93
2019-02-17T05:43:51.554Z,14.97
2019-02-17T05:44:27.318Z,14.80
2019-02-17T05:45:02.868Z,14.60
2019-02-17T05:45:38.667Z,15.30
2019-02-17T05:46:14.225Z,14.37
2019-02-17T05:46:49.845Z,13.87
2019-02-17T05:47:26.400Z,13.70
2019-02-17T05:48:02.009Z,13.90
2019-02-17T05:48:37.528Z,14.27
2019-02-17T05:49:13.057Z,13.60
2019-02-17T05:49:48.612Z,14.40
2019-02-17T05:50:24.207Z,13.60
2019-02-17T05:50:59.990Z,13.97
2019-02-17T05:51:35.533Z,14.60
2019-02-17T05:52:11.551Z,13.23
2019-02-17T05:52:47.099Z,13.13
2019-02-17T05:53:22.928Z,13.63
2019-02-17T05:53:58.486Z,13.87
2019-02-17T05:54:34.334Z,13.97
2019-02-17T05:55:09.867Z,13.10
2019-02-17T05:55:45.432Z,14.73
2019-02-17T05:56:21.097Z,13.57
2019-02-17T05:56:56.606Z,13.93
2019-02-17T05:57:32.122Z,14.07
2019-02-17T05:58:07.647Z,12.80
2019-02-17T05:58:43.187Z,13.30
2019-02-17T05:59:18.788Z,13.97
2019-02-17T05:59:54.441Z,13.33
2019-02-17T06:00:32.950Z,13.30
2019-02-17T06:01:08.941Z,13.60
2019-02-17T06:01:44.438Z,12.77
2019-02-17T06:02:19.955Z,13.33
2019-02-17T06:02:55.528Z,13.53
2019-02-17T06:03:31.033Z,13.77
2019-02-17T06:04:06.606Z,13.67
2019-02-17T06:04:42.210Z,14.60
2019-02-17T06:05:17.971Z,13.50
2019-02-17T06:05:53.481Z,13.63
2019-02-17T06:06:29.362Z,13.10
2019-02-17T06:07:04.929Z,13.47
2019-02-17T06:07:40.571Z,13.27
2019-02-17T06:08:16.122Z,14.47
2019-02-17T06:08:51.701Z,12.83
2019-02-17T06:09:27.274Z,14.30
2019-02-17T06:10:02.873Z,13.97
2019-02-17T06:10:38.404Z,12.60
2019-02-17T06:11:13.918Z,12.73
2019-02-17T06:11:49.470Z,13.43
2019-02-17T06:12:25.005Z,13.67
2019-02-17T06:13:00.870Z,14.00
2019-02-17T06:13:36.400Z,13.53
2019-02-17T06:14:11.934Z,13.73
2019-02-17T06:14:47.462Z,14.10
2019-02-17T06:15:22.986Z,13.33
2019-02-17T06:15:58.791Z,12.80
2019-02-17T06:16:34.570Z,12.87
2019-02-17T06:17:10.145Z,12.77
2019-02-17T06:17:45.716Z,13.43
2019-02-17T06:18:21.307Z,13.27
2019-02-17T06:18:56.869Z,13.93
2019-02-17T06:19:32.378Z,13.67
2019-02-17T06:20:08.732Z,13.80
2019-02-17T06:20:44.542Z,12.50
2019-02-17T06:21:20.146Z,11.70
2019-02-17T06:21:55.739Z,12.70
2019-02-17T06:22:31.262Z,12.30
2019-02-17T06:23:07.125Z,12.33
2019-02-17T06:23:42.661Z,12.50
2019-02-17T06:24:18.166Z,12.97
2019-02-17T06:24:53.699Z,13.80
2019-02-17T06:25:30.182Z,11.87
2019-02-17T06:26:06.022Z,12.97
2019-02-17T06:26:41.673Z,12.87
2019-02-17T06:27:17.181Z,13.00
2019-02-17T06:27:52.787Z,11.57
2019-02-17T06:28:28.429Z,12.13
2019-02-17T06:29:03.941Z,13.67
2019-02-17T06:29:39.529Z,13.40
2019-02-17T06:30:15.318Z,12.33
2019-02-17T06:30:50.902Z,12.43
2019-02-17T06:31:26.429Z,13.63
2019-02-17T06:32:02.041Z,12.87
2019-02-17T06:32:37.664Z,13.37
2019-02-17T06:33:13.227Z,13.70
2019-02-17T06:33:48.838Z,11.93
2019-02-17T06:34:24.456Z,12.83
2019-02-17T06:34:59.959Z,13.07
2019-02-17T06:35:35.598Z,12.50
2019-02-17T06:36:11.124Z,12.70
2019-02-17T06:36:46.667Z,13.40
2019-02-17T06:37:22.195Z,13.33
2019-02-17T06:37:57.749Z,13.47
2019-02-17T06:38:33.260Z,13.57
2019-02-17T06:39:08.813Z,13.63
2019-02-17T06:39:44.322Z,13.23
2019-02-17T06:40:19.832Z,13.37
2019-02-17T06:40:55.357Z,13.00
2019-02-17T06:41:30.958Z,13.23
2019-02-17T06:42:06.487Z,14.30
2019-02-17T06:42:42.342Z,12.17
2019-02-17T06:43:17.874Z,12.90
2019-02-17T06:43:53.706Z,14.07
2019-02-17T06:44:29.317Z,14.37
2019-02-17T06:45:05.042Z,14.40
2019-02-17T06:45:41.946Z,14.17
2019-02-17T06:46:21.029Z,13.87
2019-02-17T06:46:59.308Z,12.57
2019-02-17T06:47:35.774Z,13.43
2019-02-17T06:48:11.289Z,13.43
2019-02-17T06:48:46.819Z,13.20
2019-02-17T06:49:22.328Z,13.57
2019-02-17T06:49:57.921Z,13.27
2019-02-17T06:50:33.515Z,14.40
2019-02-17T06:51:09.329Z,12.90
2019-02-17T06:51:44.862Z,13.70
2019-02-17T06:52:20.441Z,13.77
2019-02-17T06:52:56.277Z,13.40
2019-02-17T06:53:31.894Z,12.77
2019-02-17T06:54:07.548Z,12.97
2019-02-17T06:54:44.790Z,13.57
2019-02-17T06:55:31.529Z,13.53
2019-02-17T06:56:15.627Z,13.77
2019-02-17T06:56:57.844Z,13.23
2019-02-17T06:57:37.903Z,13.17
2019-02-17T06:58:13.528Z,13.53
2019-02-17T06:58:49.386Z,13.90
2019-02-17T06:59:24.969Z,13.30
2019-02-17T07:00:13.308Z,14.80
2019-02-17T07:00:51.132Z,13.43
2019-02-17T07:01:26.810Z,13.33
2019-02-17T07:02:02.403Z,13.80
2019-02-17T07:02:38.032Z,13.20
2019-02-17T07:03:14.415Z,13.27
2019-02-17T07:03:50.170Z,13.97
2019-02-17T07:04:57.181Z,13.20
2019-02-17T07:05:51.961Z,13.80
2019-02-17T07:06:33.479Z,12.47
2019-02-17T07:07:09.166Z,13.20
2019-02-17T07:07:44.721Z,11.83
2019-02-17T07:08:20.319Z,12.80
2019-02-17T07:08:56.027Z,12.23
2019-02-17T07:09:31.598Z,12.80
2019-02-17T07:10:07.822Z,12.67
2019-02-17T07:10:43.774Z,13.80
2019-02-17T07:11:19.486Z,13.93
2019-02-17T07:11:56.841Z,13.50
2019-02-17T07:12:32.724Z,13.60
2019-02-17T07:13:08.247Z,12.93
2019-02-17T07:13:43.873Z,14.17
2019-02-17T07:14:20.448Z,13.27
2019-02-17T07:14:56.162Z,12.97
2019-02-17T07:15:34.594Z,13.63
2019-02-17T07:16:10.191Z,13.83
2019-02-17T07:16:45.734Z,14.17
2019-02-17T07:17:21.310Z,14.03
2019-02-17T07:17:59.114Z,13.73
2019-02-17T07:18:34.738Z,13.90
2019-02-17T07:19:10.551Z,13.50
2019-02-17T07:19:46.145Z,12.63
2019-02-17T07:20:21.663Z,13.60
2019-02-17T07:20:57.259Z,12.97
2019-02-17T07:21:32.846Z,13.57
2019-02-17T07:22:08.418Z,13.83
2019-02-17T07:22:43.998Z,14.03
2019-02-17T07:23:20.146Z,14.20
2019-02-17T07:23:55.680Z,14.20
2019-02-17T07:24:31.466Z,14.43
2019-02-17T07:25:07.063Z,14.73
2019-02-17T07:25:42.877Z,14.67
2019-02-17T07:26:18.396Z,14.00
2019-02-17T07:26:54.294Z,14.30
2019-02-17T07:27:29.929Z,15.43
2019-02-17T07:28:05.539Z,16.80
2019-02-17T07:28:42.175Z,19.40
2019-02-17T07:29:17.680Z,18.87
2019-02-17T07:29:53.210Z,19.03
2019-02-17T07:30:28.837Z,19.63
2019-02-17T07:31:04.390Z,18.47
2019-02-17T07:31:39.922Z,19.40
2019-02-17T07:32:15.706Z,20.27
2019-02-17T07:32:51.234Z,21.17
2019-02-17T07:33:26.786Z,19.63
2019-02-17T07:34:02.560Z,19.97
2019-02-17T07:34:38.127Z,19.10
2019-02-17T07:35:13.735Z,19.90
2019-02-17T07:35:49.356Z,19.17
2019-02-17T07:36:25.004Z,18.30
2019-02-17T07:37:00.894Z,18.53
2019-02-17T07:37:36.500Z,19.20
2019-02-17T07:38:12.087Z,19.60
2019-02-17T07:38:47.835Z,17.77
2019-02-17T07:39:23.374Z,18.90
2019-02-17T07:39:58.919Z,18.37
2019-02-17T07:40:34.466Z,17.23
2019-02-17T07:41:09.986Z,18.60
2019-02-17T07:41:45.508Z,18.90
2019-02-17T07:42:21.098Z,18.63